Time;durP1;ratioP1;P1;durP2;ratioP2;P2;SDS_P1;SDS_P2;PMS_P1;PMS_P2;Temp;Humidity;BMP_temperature;BMP_pressure;BME280_temperature;BME280_humidity;BME280_pressure;Samples;Min_cycle;Max_cycle;Signal;HPM_P1;HPM_P2
2021/05/14 04:52:35;;;;;;;4.10;2.15;;;10.10;99.90;;;;;;4996863;23;20434;-66
2021/05/14 04:55:02;;;;;;;3.40;1.88;;;10.10;99.90;;;;;;4951482;29;20047;-66
2021/05/14 04:57:28;;;;;;;;;;;10.00;99.90;;;;;;4952703;29;20043;-63
2021/05/14 04:59:55;;;;;;;4.13;1.92;;;10.00;99.90;;;;;;4950544;28;19930;-64
2021/05/14 05:02:21;;;;;;;1.73;1.52;;;10.00;99.90;;;;;;4952161;29;20047;-63
2021/05/14 05:04:48;;;;;;;2.72;1.85;;;10.10;99.90;;;;;;4968130;23;20057;-82
2021/05/14 05:07:15;;;;;;;4.68;1.85;;;10.20;99.90;;;;;;4940628;29;20477;-83
2021/05/14 05:09:42;;;;;;;;;;;10.40;99.90;;;;;;4935325;29;20044;-83
2021/05/14 05:12:09;;;;;;;2.72;1.27;;;10.40;99.90;;;;;;4951876;29;20438;-82
2021/05/14 05:14:36;;;;;;;2.58;2.08;;;10.50;99.90;;;;;;4946995;29;20412;-83
2021/05/14 05:17:02;;;;;;;2.10;1.50;;;10.60;99.90;;;;;;4932376;29;20047;-83
2021/05/14 05:19:29;;;;;;;2.72;1.67;;;10.70;99.90;;;;;;4933147;29;20043;-83
2021/05/14 05:21:55;;;;;;;3.15;1.55;;;10.90;99.90;;;;;;4932956;29;20130;-83
2021/05/14 05:24:22;;;;;;;6.50;1.45;;;11.30;99.90;;;;;;4946657;29;20039;-83
2021/05/14 05:26:49;;;;;;;6.47;1.58;;;11.50;99.90;;;;;;4951768;29;20074;-83
2021/05/14 05:29:16;;;;;;;1.67;1.00;;;11.80;99.90;;;;;;4950900;29;20045;-83
2021/05/14 05:31:43;;;;;;;3.53;1.70;;;11.90;99.90;;;;;;4950510;29;20075;-82
2021/05/14 05:34:10;;;;;;;6.07;1.48;;;12.10;99.90;;;;;;4951401;28;20492;-83
2021/05/14 05:36:36;;;;;;;5.07;0.90;;;12.30;99.90;;;;;;4951466;29;20047;-83
2021/05/14 05:39:04;;;;;;;2.50;1.27;;;12.70;99.90;;;;;;4950610;29;20875;-82
2021/05/14 05:41:30;;;;;;;4.22;1.55;;;13.20;99.90;;;;;;4936990;29;20099;-82
2021/05/14 05:43:58;;;;;;;4.88;1.10;;;13.50;99.90;;;;;;4932525;29;20046;-83
2021/05/14 05:46:24;;;;;;;4.10;1.00;;;13.80;99.90;;;;;;4932517;29;20052;-83
2021/05/14 05:48:51;;;;;;;3.63;1.17;;;14.20;99.90;;;;;;4932486;29;20111;-83
2021/05/14 05:51:18;;;;;;;2.25;1.40;;;14.50;99.90;;;;;;4931197;29;20044;-83
2021/05/14 05:53:45;;;;;;;1.63;1.10;;;14.70;99.90;;;;;;4932267;29;20490;-83
2021/05/14 05:56:11;;;;;;;;;;;15.20;99.90;;;;;;4931208;29;20051;-82
2021/05/14 05:58:38;;;;;;;2.70;0.85;;;15.20;99.90;;;;;;4932590;29;20083;-84
2021/05/14 06:01:05;;;;;;;;;;;15.90;99.90;;;;;;4932790;29;20501;-84
2021/05/14 06:03:32;;;;;;;1.45;1.13;;;16.20;99.90;;;;;;4932742;29;19927;-83
2021/05/14 06:05:58;;;;;;;;;;;16.30;99.90;;;;;;4932582;29;20195;-83
2021/05/14 06:08:25;;;;;;;0.90;0.90;;;16.50;99.90;;;;;;4931175;29;20391;-83
2021/05/14 06:10:52;;;;;;;1.35;0.90;;;15.70;99.90;;;;;;4932292;29;20123;-83
2021/05/14 06:13:19;;;;;;;1.65;0.90;;;15.70;99.90;;;;;;4932539;29;20438;-83
2021/05/14 06:15:45;;;;;;;2.05;1.10;;;15.80;99.90;;;;;;4947504;29;20043;-83
2021/05/14 06:18:13;;;;;;;;;;;16.50;99.90;;;;;;4951672;28;20047;-84
2021/05/14 06:20:43;;;;;;;2.50;0.88;;;17.00;99.90;;;;;;4951710;28;20438;-84
2021/05/14 06:23:11;;;;;;;3.13;1.20;;;17.70;99.90;;;;;;4951762;29;20051;-84
2021/05/14 06:25:37;;;;;;;2.97;0.90;;;18.30;99.90;;;;;;4951448;28;20398;-84
2021/05/14 06:28:04;;;;;;;0.93;0.70;;;19.00;99.90;;;;;;4952243;28;20408;-84
2021/05/14 06:30:31;;;;;;;1.27;0.93;;;19.10;99.90;;;;;;4955833;28;20055;-84
2021/05/14 06:32:58;;;;;;;1.70;0.70;;;18.70;99.90;;;;;;4954034;29;20035;-84
2021/05/14 06:35:25;;;;;;;4.03;1.02;;;18.70;99.90;;;;;;4954228;29;20081;-84
2021/05/14 06:37:52;;;;;;;3.10;0.90;;;19.50;99.90;;;;;;4956023;29;20151;-85
2021/05/14 06:40:19;;;;;;;4.78;0.63;;;20.00;99.90;;;;;;4977714;28;20048;-84
2021/05/14 06:42:46;;;;;;;2.53;1.25;;;19.60;99.90;;;;;;4969783;28;20023;-84
2021/05/14 06:45:13;;;;;;;1.30;1.20;;;19.70;99.90;;;;;;4979321;28;20043;-84
2021/05/14 06:47:39;;;;;;;2.05;1.30;;;19.20;99.90;;;;;;4963370;28;20051;-85
2021/05/14 06:50:07;;;;;;;3.28;1.30;;;18.60;99.90;;;;;;4957787;28;20500;-84
2021/05/14 06:52:36;;;;;;;2.83;1.70;;;18.60;99.90;;;;;;4974461;28;20058;-84
2021/05/14 06:55:05;;;;;;;4.75;1.80;;;18.00;99.90;;;;;;4975782;28;20042;-83
2021/05/14 06:57:33;;;;;;;1.80;1.40;;;18.40;99.90;;;;;;4961915;28;20186;-84
2021/05/14 06:59:59;;;;;;;3.60;1.70;;;18.00;99.90;;;;;;4968933;28;20098;-83
2021/05/14 07:02:26;;;;;;;2.65;1.50;;;17.80;99.90;;;;;;4971120;28;20043;-83
2021/05/14 07:04:52;;;;;;;2.90;1.85;;;18.20;99.90;;;;;;4955743;29;20079;-84
2021/05/14 07:07:19;;;;;;;1.88;1.30;;;19.00;99.90;;;;;;4956708;28;20125;-83
2021/05/14 07:09:47;;;;;;;2.35;1.50;;;19.30;99.90;;;;;;4954943;29;20043;-83
2021/05/14 07:12:13;;;;;;;2.53;1.55;;;18.50;99.90;;;;;;4955704;28;20564;-84
2021/05/14 07:14:40;;;;;;;2.63;1.25;;;19.50;99.90;;;;;;4949171;28;20131;-84
2021/05/14 07:17:07;;;;;;;2.80;1.27;;;19.30;99.90;;;;;;4936635;29;20079;-84
2021/05/14 07:19:33;;;;;;;2.00;1.42;;;19.70;99.90;;;;;;4935638;29;20058;-83
2021/05/14 07:22:00;;;;;;;;;;;19.70;99.90;;;;;;4934628;29;20051;-84
2021/05/14 07:24:26;;;;;;;3.88;1.38;;;20.00;99.90;;;;;;4933387;29;19942;-84
2021/05/14 07:26:54;;;;;;;;;;;19.90;99.90;;;;;;4935835;29;20122;-83
2021/05/14 07:29:20;;;;;;;3.25;1.80;;;20.10;99.90;;;;;;4935844;29;20015;-83
2021/05/14 07:31:47;;;;;;;2.53;1.20;;;19.20;99.90;;;;;;4935153;29;20123;-83
2021/05/14 07:34:13;;;;;;;2.75;1.20;;;18.90;99.90;;;;;;4933911;29;20067;-85
2021/05/14 07:36:40;;;;;;;1.05;0.90;;;19.60;99.90;;;;;;4935228;29;20047;-84
2021/05/14 07:39:06;;;;;;;;;;;20.20;99.90;;;;;;4953187;28;20055;-84
2021/05/14 07:41:33;;;;;;;1.60;1.08;;;20.00;97.80;;;;;;4957871;28;19974;-85
2021/05/14 07:44:00;;;;;;;;;;;19.90;99.90;;;;;;4952828;28;20171;-84
2021/05/14 07:46:27;;;;;;;2.78;1.30;;;20.10;99.90;;;;;;4938392;29;19922;-84
2021/05/14 07:48:53;;;;;;;;;;;20.50;99.90;;;;;;4936895;29;20611;-84
2021/05/14 07:51:20;;;;;;;5.38;1.40;;;20.50;99.90;;;;;;4936066;29;20009;-84
2021/05/14 07:53:46;;;;;;;;;;;20.60;99.90;;;;;;4934148;29;20079;-84
2021/05/14 07:56:12;;;;;;;1.45;1.08;;;20.50;99.90;;;;;;4934548;29;19927;-84
2021/05/14 07:58:39;;;;;;;2.08;1.02;;;20.10;99.90;;;;;;4933138;29;20044;-84
2021/05/14 08:01:06;;;;;;;;;;;21.40;97.30;;;;;;4933223;29;20043;-84
2021/05/14 08:03:33;;;;;;;1.75;0.40;;;21.80;85.50;;;;;;4936182;29;19954;-84
2021/05/14 08:05:59;;;;;;;1.30;0.50;;;22.00;80.30;;;;;;4934867;29;20122;-85
2021/05/14 08:08:28;;;;;;;1.13;0.63;;;22.80;80.10;;;;;;4934412;29;20464;-84
2021/05/14 08:10:55;;;;;;;1.40;0.77;;;23.20;74.50;;;;;;4934448;29;20056;-85
2021/05/14 08:13:22;;;;;;;2.33;1.77;;;22.00;75.70;;;;;;4934214;29;20217;-84
2021/05/14 08:15:49;;;;;;;0.98;0.50;;;22.20;74.90;;;;;;4949439;29;20117;-85
2021/05/14 08:18:18;;;;;;;2.72;0.80;;;23.00;71.80;;;;;;4951695;29;20047;-84
2021/05/14 08:20:45;;;;;;;2.05;0.57;;;23.20;71.60;;;;;;4953998;29;20047;-84
2021/05/14 08:23:12;;;;;;;2.10;0.60;;;23.00;68.20;;;;;;4953143;28;20481;-84
2021/05/14 08:25:38;;;;;;;2.60;0.63;;;22.50;71.20;;;;;;4951568;29;20047;-86
2021/05/14 08:28:05;;;;;;;2.20;0.70;;;22.80;73.60;;;;;;4953150;28;20074;-86
2021/05/14 08:30:32;;;;;;;8.57;0.73;;;22.60;70.70;;;;;;4953339;29;20050;-85
2021/05/14 08:32:59;;;;;;;4.57;0.82;;;21.90;71.30;;;;;;4954387;28;20145;-85
2021/05/14 08:35:26;;;;;;;1.30;0.55;;;20.70;72.50;;;;;;4952398;29;20062;-85
2021/05/14 08:37:53;;;;;;;2.25;1.23;;;20.30;77.60;;;;;;4953969;28;20110;-84
2021/05/14 08:40:19;;;;;;;;;;;19.60;89.30;;;;;;4949305;28;20039;-85
2021/05/14 08:42:46;;;;;;;5.30;1.70;;;18.70;95.80;;;;;;4954889;28;19986;-85
2021/05/14 08:45:14;;;;;;;4.57;1.83;;;18.90;99.50;;;;;;4954104;28;20103;-85
2021/05/14 08:47:42;;;;;;;3.28;1.85;;;18.00;99.90;;;;;;4956713;28;20044;-85
2021/05/14 08:50:11;;;;;;;2.83;1.50;;;17.30;99.90;;;;;;4945504;29;20048;-85
2021/05/14 08:52:39;;;;;;;7.70;1.35;;;16.70;99.90;;;;;;4935898;29;20425;-84
2021/05/14 08:55:08;;;;;;;2.60;1.38;;;16.30;99.90;;;;;;4932712;29;20398;-84
2021/05/14 08:57:36;;;;;;;3.40;1.38;;;16.00;99.90;;;;;;4933602;29;20050;-84
2021/05/14 09:00:05;;;;;;;4.63;1.60;;;15.90;99.90;;;;;;4933633;29;20135;-84
2021/05/14 09:02:33;;;;;;;4.88;1.55;;;16.10;99.90;;;;;;4933291;29;20047;-85
2021/05/14 09:05:19;;;;;;;3.47;1.33;;;16.20;99.90;;;;;;4934155;29;20048;-85
2021/05/14 09:07:47;;;;;;;3.38;1.38;;;16.60;99.90;;;;;;4933912;29;20044;-84
2021/05/14 09:10:14;;;;;;;3.45;1.50;;;16.60;99.90;;;;;;4931926;29;20044;-84
2021/05/14 09:12:42;;;;;;;4.60;1.50;;;17.00;99.90;;;;;;4933637;29;20055;-84
2021/05/14 09:15:28;;;;;;;5.15;1.20;;;17.40;99.90;;;;;;4942324;29;20062;-84
2021/05/14 09:18:08;;;;;;;6.50;1.65;;;17.30;99.90;;;;;;4951089;29;20054;-84
2021/05/14 09:20:36;;;;;;;3.95;1.33;;;18.10;99.90;;;;;;4952839;28;20047;-86
2021/05/14 09:23:24;;;;;;;4.03;1.33;;;18.70;99.90;;;;;;4951864;29;20089;-85
2021/05/14 09:25:52;;;;;;;3.00;1.33;;;18.40;99.90;;;;;;4952486;29;20404;-85
2021/05/14 09:28:23;;;;;;;2.78;1.40;;;17.80;99.90;;;;;;4953081;28;20047;-85
2021/05/14 09:31:09;;;;;;;5.30;1.60;;;17.10;99.90;;;;;;4952509;29;20051;-84
2021/05/14 09:33:37;;;;;;;3.03;1.50;;;17.00;99.90;;;;;;4950810;29;20382;-83
2021/05/14 09:36:05;;;;;;;5.43;1.90;;;17.40;99.90;;;;;;4952741;28;20126;-83
2021/05/14 09:38:44;;;;;;;6.80;1.60;;;17.50;99.90;;;;;;4952425;29;20051;-83
2021/05/14 09:41:26;;;;;;;1.73;1.55;;;17.30;99.90;;;;;;4952078;29;20055;-83
2021/05/14 09:43:58;;;;;;;3.33;1.52;;;17.10;99.90;;;;;;4951129;29;20051;-83
2021/05/14 09:46:30;;;;;;;3.83;1.38;;;16.80;99.90;;;;;;4952683;28;20035;-84
2021/05/14 09:48:59;;;;;;;4.55;1.70;;;16.90;99.90;;;;;;4951600;28;20058;-84
2021/05/14 09:51:26;;;;;;;4.75;1.23;;;17.00;99.90;;;;;;4951322;29;20478;-83
2021/05/14 09:53:56;;;;;;;4.68;1.33;;;16.80;99.90;;;;;;4950287;29;20130;-83
2021/05/14 09:56:28;;;;;;;3.15;1.02;;;16.60;99.90;;;;;;4950112;29;20517;-84
2021/05/14 09:58:59;;;;;;;6.32;1.42;;;17.10;99.90;;;;;;4952045;28;20055;-84
2021/05/14 10:01:27;;;;;;;5.65;1.70;;;17.40;99.90;;;;;;4952052;28;20050;-84
2021/05/14 10:03:56;;;;;;;2.83;1.20;;;17.60;99.90;;;;;;4951735;28;20433;-84
2021/05/14 10:06:23;;;;;;;2.13;1.40;;;17.70;99.90;;;;;;4955253;28;20114;-84
2021/05/14 10:08:51;;;;;;;2.45;1.30;;;17.60;99.90;;;;;;4955506;28;20541;-85
2021/05/14 10:11:22;;;;;;;3.47;1.00;;;17.30;99.90;;;;;;4954093;29;20047;-84
2021/05/14 10:13:51;;;;;;;6.65;1.40;;;17.30;99.90;;;;;;4955589;28;20186;-85
2021/05/14 10:16:18;;;;;;;4.35;1.20;;;17.10;99.90;;;;;;4918380;29;20052;-85
2021/05/14 10:18:49;;;;;;;1.35;1.25;;;17.20;99.90;;;;;;4919209;29;20067;-85
2021/05/14 10:21:18;;;;;;;7.18;1.70;;;17.30;99.90;;;;;;4919990;29;20546;-85
2021/05/14 10:23:48;;;;;;;2.30;1.10;;;17.40;99.90;;;;;;4917452;29;20756;-85
2021/05/14 10:26:14;;;;;;;3.70;1.30;;;17.00;99.90;;;;;;4915566;29;20056;-85
2021/05/14 10:28:47;;;;;;;16.17;3.42;;;17.20;99.90;;;;;;4920287;29;20486;-85
2021/05/14 10:31:24;;;;;;;5.25;1.50;;;17.30;99.90;;;;;;4917881;29;20056;-85
2021/05/14 10:33:53;;;;;;;1.58;0.60;;;17.30;99.90;;;;;;4918370;29;20056;-84
2021/05/14 10:36:42;;;;;;;0.90;0.77;;;17.70;99.90;;;;;;4916684;29;20316;-84
2021/05/14 10:39:11;;;;;;;4.60;1.13;;;17.90;99.90;;;;;;4919617;29;20060;-85
2021/05/14 10:41:49;;;;;;;3.30;0.90;;;17.50;99.90;;;;;;4918530;29;20044;-84
2021/05/14 10:44:17;;;;;;;1.38;0.65;;;18.00;99.90;;;;;;4951451;28;20036;-85
2021/05/14 10:46:44;;;;;;;4.88;0.70;;;18.00;99.90;;;;;;4928732;28;20066;-84
2021/05/14 10:49:14;;;;;;;4.25;0.60;;;17.60;99.90;;;;;;4942553;28;20028;-85
2021/05/14 10:52:01;;;;;;;2.40;0.95;;;17.70;99.90;;;;;;4924757;28;20081;-85
2021/05/14 10:54:53;;;;;;;1.67;1.00;;;18.00;99.90;;;;;;4920496;29;20621;-84
2021/05/14 10:57:48;;;;;;;2.33;0.68;;;18.10;99.90;;;;;;4916714;29;20092;-85
2021/05/14 11:00:36;;;;;;;3.55;0.80;;;18.00;99.90;;;;;;4907554;29;20040;-85
2021/05/14 11:03:14;;;;;;;1.40;0.82;;;18.00;99.90;;;;;;4941791;28;20028;-85
2021/05/14 11:05:43;;;;;;;3.13;0.88;;;18.20;99.90;;;;;;4956566;28;20033;-86
2021/05/14 11:08:10;;;;;;;1.92;0.80;;;18.50;99.90;;;;;;4942089;28;20122;-85
2021/05/14 11:10:39;;;;;;;6.38;0.70;;;18.70;99.90;;;;;;4942502;28;20045;-86
2021/05/14 11:13:51;;;;;;;1.80;0.70;;;18.90;99.90;;;;;;4929046;28;20040;-86
2021/05/14 11:16:33;;;;;;;2.70;0.60;;;18.80;99.90;;;;;;4919096;28;20081;-85
2021/05/14 11:19:09;;;;;;;1.95;0.50;;;18.20;99.90;;;;;;4952903;28;20509;-85
2021/05/14 11:22:01;;;;;;;2.25;0.80;;;17.90;99.90;;;;;;4921754;29;20048;-85
2021/05/14 11:24:33;;;;;;;2.72;0.40;;;17.50;99.90;;;;;;4915433;29;20823;-85
2021/05/14 11:27:02;;;;;;;1.35;0.70;;;17.00;99.90;;;;;;4919271;29;20076;-85
2021/05/14 11:29:31;;;;;;;2.92;0.63;;;16.70;99.90;;;;;;4917183;29;20175;-85
2021/05/14 11:32:18;;;;;;;6.45;0.85;;;16.60;99.90;;;;;;4914691;29;20048;-86
2021/05/14 11:34:53;;;;;;;1.63;0.70;;;16.80;99.90;;;;;;4915858;29;20048;-85
2021/05/14 11:37:20;;;;;;;1.70;0.50;;;16.80;99.90;;;;;;4931379;29;20059;-85
2021/05/14 11:39:47;;;;;;;2.30;0.52;;;16.80;99.90;;;;;;4916010;29;20059;-85
2021/05/14 11:42:18;;;;;;;1.42;0.65;;;17.00;99.90;;;;;;4931575;29;20047;-85
2021/05/14 11:44:55;;;;;;;1.65;0.60;;;17.30;99.90;;;;;;4914627;29;20044;-86
2021/05/14 11:47:23;;;;;;;1.10;0.43;;;17.40;99.90;;;;;;4916171;29;20625;-84
2021/05/14 11:49:50;;;;;;;0.28;0.10;;;17.30;99.90;;;;;;4916090;29;20131;-84
2021/05/14 11:52:32;;;;;;;2.85;0.50;;;17.30;99.90;;;;;;4914713;29;20052;-85
2021/05/14 11:55:08;;;;;;;0.30;0.30;;;17.00;99.90;;;;;;4930366;29;20060;-84
2021/05/14 11:57:35;;;;;;;1.85;0.30;;;17.00;99.90;;;;;;4916125;29;20139;-83
2021/05/14 12:00:04;;;;;;;0.30;0.20;;;17.00;99.90;;;;;;4915865;29;20115;-84
2021/05/14 12:02:35;;;;;;;2.88;0.50;;;16.80;99.90;;;;;;4915769;29;20048;-84
2021/05/14 12:05:01;;;;;;;0.20;0.10;;;16.70;99.90;;;;;;4914017;29;20079;-84
2021/05/14 12:07:28;;;;;;;0.50;0.30;;;17.20;99.90;;;;;;4915579;29;20083;-85
2021/05/14 12:09:59;;;;;;;0.40;0.20;;;17.10;99.90;;;;;;4915446;29;20426;-84
2021/05/14 12:12:25;;;;;;;4.20;0.50;;;17.70;99.90;;;;;;4915427;29;20650;-85
2021/05/14 12:15:07;;;;;;;;;;;18.30;99.30;;;;;;4934879;29;20106;-86
2021/05/14 12:17:35;;;;;;;1.42;0.20;;;18.60;98.20;;;;;;4953698;28;20384;-85
2021/05/14 12:20:27;;;;;;;0.10;0.10;;;18.70;97.00;;;;;;4953713;28;20056;-85
2021/05/14 12:22:55;;;;;;;3.17;0.90;;;19.10;96.40;;;;;;4953256;28;20099;-86
2021/05/14 12:25:23;;;;;;;1.50;0.30;;;19.10;97.30;;;;;;4954185;28;20082;-86
2021/05/14 12:27:50;;;;;;;1.48;0.60;;;19.30;95.10;;;;;;4953183;28;20420;-86
2021/05/14 12:30:21;;;;;;;1.65;0.65;;;18.90;96.10;;;;;;4953382;29;20624;-86
2021/05/14 12:32:57;;;;;;;0.20;0.20;;;18.60;95.50;;;;;;4958602;29;20047;-86
2021/05/14 12:35:24;;;;;;;2.95;0.20;;;18.60;95.20;;;;;;4955090;29;20043;-86
2021/05/14 12:37:58;;;;;;;1.27;0.20;;;18.40;96.10;;;;;;4955549;28;20520;-85
2021/05/14 12:40:33;;;;;;;0.45;0.30;;;18.80;94.20;;;;;;4955947;28;20047;-86
2021/05/14 12:43:08;;;;;;;0.82;0.45;;;18.90;95.20;;;;;;4955232;29;20087;-86
2021/05/14 12:45:36;;;;;;;0.70;0.47;;;19.10;94.90;;;;;;4958728;29;20051;-84
2021/05/14 12:48:06;;;;;;;1.15;0.57;;;19.00;96.90;;;;;;4970278;29;20055;-85
2021/05/14 12:50:33;;;;;;;1.60;0.70;;;19.20;96.30;;;;;;4963414;29;20085;-84
2021/05/14 12:53:01;;;;;;;1.38;0.40;;;20.50;92.80;;;;;;4962556;29;20440;-84
2021/05/14 12:55:29;;;;;;;2.88;0.82;;;20.90;91.00;;;;;;4952117;29;20090;-85
2021/05/14 12:58:01;;;;;;;0.28;0.20;;;21.30;87.00;;;;;;4952010;29;20043;-85
2021/05/14 13:00:29;;;;;;;0.50;0.40;;;21.30;83.50;;;;;;4952593;29;20413;-84
2021/05/14 13:03:00;;;;;;;2.35;0.30;;;20.50;89.80;;;;;;4951544;29;20079;-85
2021/05/14 13:05:36;;;;;;;1.65;0.50;;;20.10;88.80;;;;;;4952388;28;20070;-85
2021/05/14 13:08:05;;;;;;;1.40;0.90;;;19.70;90.20;;;;;;4955779;28;20109;-85
2021/05/14 13:10:40;;;;;;;1.67;0.80;;;19.40;90.30;;;;;;4951604;29;20429;-85
2021/05/14 13:13:07;;;;;;;2.35;1.20;;;18.70;93.40;;;;;;4951532;29;20441;-85
2021/05/14 13:15:34;;;;;;;0.75;0.25;;;18.60;95.30;;;;;;4938244;29;20068;-85
2021/05/14 13:18:01;;;;;;;1.55;0.45;;;18.40;94.30;;;;;;4933226;29;20138;-85
2021/05/14 13:20:27;;;;;;;1.73;0.43;;;18.50;94.80;;;;;;4933305;29;20071;-86
2021/05/14 13:22:55;;;;;;;0.40;0.40;;;18.80;95.40;;;;;;4933257;29;20071;-86
2021/05/14 13:25:22;;;;;;;1.48;0.50;;;19.50;94.50;;;;;;4932830;29;20466;-85
2021/05/14 13:27:49;;;;;;;;;;;19.30;92.90;;;;;;4932399;29;20521;-86
2021/05/14 13:30:16;;;;;;;1.67;0.50;;;19.50;93.10;;;;;;4933694;29;20305;-85
2021/05/14 13:32:43;;;;;;;1.33;0.40;;;20.70;92.10;;;;;;4932688;29;20454;-86
2021/05/14 13:35:10;;;;;;;3.00;0.22;;;21.10;89.30;;;;;;4934710;29;20106;-86
2021/05/14 13:37:37;;;;;;;1.80;0.30;;;20.70;86.90;;;;;;4935803;29;20051;-84
2021/05/14 13:40:07;;;;;;;0.75;0.20;;;20.30;90.20;;;;;;4937172;29;20043;-85
2021/05/14 13:42:34;;;;;;;3.25;0.70;;;20.50;90.60;;;;;;4932691;29;20050;-85
2021/05/14 13:45:00;;;;;;;1.48;0.70;;;21.60;90.30;;;;;;4931218;29;20044;-86
2021/05/14 13:47:28;;;;;;;;;;;22.50;84.90;;;;;;4931969;29;20079;-85
2021/05/14 13:49:55;;;;;;;1.10;0.15;;;22.90;80.90;;;;;;4933020;29;19931;-86
2021/05/14 13:52:22;;;;;;;0.63;0.20;;;22.90;75.60;;;;;;4931528;29;20040;-86
2021/05/14 13:54:49;;;;;;;0.80;0.40;;;22.20;77.50;;;;;;4932651;29;20092;-85
2021/05/14 13:57:16;;;;;;;;;;;21.20;82.70;;;;;;4931924;29;20768;-85
2021/05/14 13:59:43;;;;;;;3.35;0.45;;;21.70;84.20;;;;;;4931658;29;19933;-85
2021/05/14 14:02:11;;;;;;;2.55;0.40;;;20.70;85.10;;;;;;4933591;29;20090;-85
2021/05/14 14:04:38;;;;;;;2.78;0.45;;;20.00;88.80;;;;;;4936464;29;20086;-87
2021/05/14 14:07:05;;;;;;;1.05;0.40;;;20.10;90.10;;;;;;4934844;29;20051;-85
2021/05/14 14:09:31;;;;;;;6.15;0.70;;;20.40;89.40;;;;;;4932963;29;20059;-85
2021/05/14 14:12:01;;;;;;;0.80;0.30;;;20.30;90.50;;;;;;4933143;29;20095;-85
2021/05/14 14:14:29;;;;;;;1.70;0.35;;;20.70;89.80;;;;;;4937654;29;20071;-85
2021/05/14 14:16:56;;;;;;;1.20;0.30;;;20.40;88.90;;;;;;4951650;28;20047;-85
2021/05/14 14:19:23;;;;;;;2.33;0.70;;;20.50;90.00;;;;;;4951258;29;20560;-85
2021/05/14 14:21:51;;;;;;;;;;;20.20;90.00;;;;;;4950674;29;20075;-85
2021/05/14 14:24:18;;;;;;;1.55;1.00;;;20.50;89.70;;;;;;4950533;29;20358;-85
2021/05/14 14:26:45;;;;;;;9.20;1.20;;;20.40;89.20;;;;;;4951026;29;20194;-85
2021/05/14 14:29:12;;;;;;;0.77;0.50;;;20.00;89.40;;;;;;4953223;28;20654;-85
2021/05/14 14:31:40;;;;;;;4.80;0.50;;;19.90;89.30;;;;;;4952330;28;20100;-85
2021/05/14 14:34:09;;;;;;;2.65;0.60;;;20.00;89.60;;;;;;4952121;29;20460;-85
2021/05/14 14:36:36;;;;;;;4.80;0.98;;;20.50;88.70;;;;;;4951709;29;20069;-85
2021/05/14 14:39:04;;;;;;;0.80;0.80;;;20.90;85.40;;;;;;4953655;28;20102;-85
2021/05/14 14:41:31;;;;;;;3.65;0.40;;;21.20;85.00;;;;;;4952507;29;20047;-84
2021/05/14 14:43:59;;;;;;;3.58;1.10;;;21.70;82.50;;;;;;4956345;28;20079;-85
2021/05/14 14:46:26;;;;;;;1.27;0.88;;;22.00;85.30;;;;;;4970307;29;20111;-84
2021/05/14 14:48:54;;;;;;;1.48;0.30;;;21.90;85.40;;;;;;4975822;28;20042;-85
2021/05/14 14:51:20;;;;;;;4.55;0.50;;;21.70;86.80;;;;;;4978319;28;20039;-85
2021/05/14 14:53:47;;;;;;;2.08;0.40;;;21.30;88.60;;;;;;4978971;28;20047;-84
2021/05/14 14:56:13;;;;;;;;;;;21.40;87.20;;;;;;4965415;28;20556;-85
2021/05/14 14:58:40;;;;;;;1.55;0.50;;;21.10;88.10;;;;;;4960546;29;19923;-85
2021/05/14 15:01:06;;;;;;;0.75;0.50;;;21.40;89.80;;;;;;4958925;29;20075;-85
2021/05/14 15:03:34;;;;;;;3.08;0.30;;;21.20;89.70;;;;;;4975362;28;20035;-85
2021/05/14 15:06:01;;;;;;;1.13;0.30;;;20.80;82.80;;;;;;4979669;28;20062;-85
2021/05/14 15:08:28;;;;;;;0.63;0.40;;;20.80;82.20;;;;;;4980348;28;20036;-84
2021/05/14 15:10:55;;;;;;;0.60;0.30;;;20.40;82.70;;;;;;4980757;28;20037;-85
2021/05/14 15:13:22;;;;;;;1.52;0.45;;;19.80;81.70;;;;;;4981882;28;20027;-84
2021/05/14 15:15:49;;;;;;;0.73;0.38;;;19.30;86.00;;;;;;4964410;29;20491;-85
2021/05/14 15:18:15;;;;;;;;;;;19.20;89.00;;;;;;4955184;29;20054;-85
2021/05/14 15:20:42;;;;;;;0.75;0.30;;;19.20;89.00;;;;;;4955437;29;20612;-85
2021/05/14 15:23:17;;;;;;;2.83;0.38;;;19.00;90.00;;;;;;4955161;28;20059;-85
2021/05/14 15:25:44;;;;;;;2.95;0.60;;;18.90;90.40;;;;;;4957272;29;20047;-85
2021/05/14 15:28:13;;;;;;;4.70;0.52;;;18.60;91.10;;;;;;4954061;28;20576;-85
2021/05/14 15:30:40;;;;;;;3.72;2.13;;;18.70;91.20;;;;;;4954330;28;20063;-84
2021/05/14 15:33:07;;;;;;;;;;;18.60;90.50;;;;;;4954889;28;20083;-85
2021/05/14 15:35:34;;;;;;;0.77;0.50;;;18.60;91.00;;;;;;4955726;29;20009;-85
2021/05/14 15:38:01;;;;;;;0.80;0.50;;;18.60;91.60;;;;;;4959421;28;20054;-86
2021/05/14 15:40:28;;;;;;;;;;;18.60;91.30;;;;;;4955487;29;20044;-86
2021/05/14 15:42:55;;;;;;;2.72;0.80;;;18.60;91.70;;;;;;4954044;29;19981;-86
2021/05/14 15:45:21;;;;;;;1.08;0.68;;;18.60;92.30;;;;;;4955226;29;20039;-86
2021/05/14 15:47:48;;;;;;;2.55;0.80;;;18.50;92.30;;;;;;4954916;28;20138;-85
2021/05/14 15:50:16;;;;;;;1.25;1.00;;;18.40;93.50;;;;;;4954798;29;20105;-86
2021/05/14 15:52:43;;;;;;;3.45;1.42;;;18.30;94.90;;;;;;4953726;29;20039;-86
2021/05/14 15:55:11;;;;;;;4.65;0.98;;;17.60;99.90;;;;;;4954253;29;20118;-86
2021/05/14 15:57:39;;;;;;;3.65;1.38;;;17.20;99.90;;;;;;4955214;29;20043;-85
2021/05/14 16:00:07;;;;;;;3.03;1.83;;;17.10;99.90;;;;;;4954022;28;20133;-85
2021/05/14 16:02:43;;;;;;;7.22;1.98;;;16.80;99.90;;;;;;4953425;28;20047;-85
2021/05/14 16:05:10;;;;;;;5.15;2.10;;;16.50;99.90;;;;;;4953053;28;20062;-84
2021/05/14 16:07:37;;;;;;;9.60;8.65;;;16.60;99.90;;;;;;4954126;28;20043;-84
2021/05/14 16:10:04;;;;;;;12.93;3.45;;;16.60;99.90;;;;;;4952027;29;20065;-85
2021/05/14 16:12:31;;;;;;;2.90;2.03;;;16.70;99.90;;;;;;4952138;29;20058;-85
2021/05/14 16:14:59;;;;;;;2.30;2.08;;;17.00;99.90;;;;;;4944317;28;20533;-84
2021/05/14 16:17:27;;;;;;;3.30;1.20;;;17.10;99.90;;;;;;4934230;29;20448;-84
2021/05/14 16:19:55;;;;;;;1.10;0.60;;;17.30;99.90;;;;;;4933997;29;20047;-83
2021/05/14 16:22:23;;;;;;;3.28;2.33;;;17.30;99.90;;;;;;4931801;29;20494;-84
2021/05/14 16:24:49;;;;;;;41.50;34.95;;;17.30;99.90;;;;;;4932393;29;20091;-84
2021/05/14 16:27:17;;;;;;;38.15;31.90;;;17.40;99.90;;;;;;4932856;29;20138;-85
2021/05/14 16:29:45;;;;;;;8.85;7.95;;;17.50;99.90;;;;;;4934322;29;20063;-85
2021/05/14 16:32:13;;;;;;;3.95;3.47;;;17.60;99.90;;;;;;4933861;29;20485;-85
2021/05/14 16:34:41;;;;;;;84.03;65.25;;;17.30;99.90;;;;;;4933370;29;20066;-85
2021/05/14 16:37:08;;;;;;;19.45;15.60;;;17.30;99.90;;;;;;4934320;29;20043;-85
2021/05/14 16:39:37;;;;;;;11.45;8.65;;;17.40;99.90;;;;;;4934742;29;20059;-85
2021/05/14 16:42:05;;;;;;;2.38;2.10;;;17.40;99.90;;;;;;4934387;29;20048;-85
2021/05/14 16:44:32;;;;;;;26.33;22.58;;;17.30;99.90;;;;;;4935297;29;20043;-85
2021/05/14 16:46:59;;;;;;;9.10;7.82;;;17.30;99.90;;;;;;4944904;28;20036;-86
2021/05/14 16:49:27;;;;;;;2.33;1.80;;;17.50;99.90;;;;;;4947849;28;20058;-85
2021/05/14 16:51:54;;;;;;;1.15;0.60;;;17.30;99.90;;;;;;4956023;28;20062;-85
2021/05/14 16:54:21;;;;;;;10.75;5.97;;;17.10;99.90;;;;;;4946459;28;20056;-86
2021/05/14 16:56:48;;;;;;;102.65;56.03;;;17.20;99.90;;;;;;4936128;29;20043;-84
2021/05/14 16:59:15;;;;;;;137.85;81.65;;;17.30;99.90;;;;;;4934072;29;20144;-85
2021/05/14 17:01:42;;;;;;;98.05;59.90;;;17.30;99.90;;;;;;4933946;29;20043;-86
2021/05/14 17:04:08;;;;;;;57.72;36.17;;;17.20;99.90;;;;;;4942347;29;20127;-85
2021/05/14 17:06:43;;;;;;;65.68;37.72;;;17.10;99.90;;;;;;4936237;29;20067;-85
2021/05/14 17:09:10;;;;;;;110.40;65.78;;;17.10;99.90;;;;;;4932872;29;20102;-85
2021/05/14 17:11:37;;;;;;;70.88;43.85;;;16.90;99.90;;;;;;4934210;29;20103;-86
2021/05/14 17:14:04;;;;;;;99.07;62.97;;;16.80;99.90;;;;;;4935605;29;20048;-84
2021/05/14 17:16:30;;;;;;;23.05;16.75;;;16.70;99.90;;;;;;4952194;29;20130;-85
2021/05/14 17:18:58;;;;;;;;;;;16.50;99.90;;;;;;4952210;29;20066;-85
2021/05/14 17:21:24;;;;;;;23.70;16.40;;;16.20;99.90;;;;;;4953563;29;19929;-85
2021/05/14 17:23:53;;;;;;;8.45;7.45;;;16.00;99.90;;;;;;4952478;29;20512;-85
2021/05/14 17:26:20;;;;;;;7.55;5.95;;;15.90;99.90;;;;;;4952069;29;20039;-85
2021/05/14 17:28:46;;;;;;;;;;;15.80;99.90;;;;;;4952722;28;20122;-85
2021/05/14 17:31:13;;;;;;;3.78;1.73;;;15.60;99.90;;;;;;4950720;29;20269;-85
2021/05/14 17:33:40;;;;;;;1.50;0.40;;;15.50;99.90;;;;;;4952764;29;20043;-85
2021/05/14 17:36:07;;;;;;;0.50;0.50;;;15.30;99.90;;;;;;4952235;29;20044;-85
2021/05/14 17:38:34;;;;;;;1.02;0.80;;;15.10;99.90;;;;;;4951142;29;20480;-85
2021/05/14 17:41:05;;;;;;;4.53;2.83;;;15.10;99.90;;;;;;4952417;28;20552;-85
2021/05/14 17:46:54;;;;;;;6.07;4.25;;;15.20;99.90;;;;;;4950523;29;20271;-67
2021/05/14 17:49:21;;;;;;;3.60;2.65;;;15.10;99.90;;;;;;4951451;29;20050;-68
2021/05/14 17:51:47;;;;;;;3.67;2.08;;;15.10;99.90;;;;;;4951884;28;20047;-67
2021/05/14 17:54:14;;;;;;;3.63;2.00;;;15.10;99.90;;;;;;4951959;28;20506;-67
2021/05/14 17:56:42;;;;;;;2.13;1.00;;;15.10;99.90;;;;;;4951788;28;20078;-68